createdAt,value
2018-07-24T00:00:27.601Z,16.45
2018-07-24T00:03:52.095Z,15.93
2018-07-24T00:07:16.558Z,15.18
2018-07-24T00:10:41.027Z,14.80
2018-07-24T00:14:05.473Z,16.05
2018-07-24T00:17:29.983Z,15.60
2018-07-24T00:20:54.491Z,16.48
2018-07-24T00:24:18.924Z,17.42
2018-07-24T00:27:43.374Z,16.15
2018-07-24T00:31:08.753Z,16.23
2018-07-24T00:34:33.294Z,17.42
2018-07-24T00:37:57.775Z,15.80
2018-07-24T00:41:22.235Z,16.60
2018-07-24T00:44:46.706Z,16.23
2018-07-24T00:48:11.200Z,15.93
2018-07-24T00:51:35.634Z,17.32
2018-07-24T00:55:00.116Z,17.35
2018-07-24T00:58:24.574Z,17.15
2018-07-24T01:01:48.991Z,17.45
2018-07-24T01:05:13.418Z,18.05
2018-07-24T01:08:38.925Z,18.30
2018-07-24T01:12:03.328Z,19.65
2018-07-24T01:15:27.795Z,18.48
2018-07-24T01:18:52.283Z,17.67
2018-07-24T01:22:16.779Z,17.10
2018-07-24T01:25:41.223Z,18.02
2018-07-24T01:29:05.687Z,19.05
2018-07-24T01:32:30.149Z,18.37
2018-07-24T01:35:54.637Z,19.57
2018-07-24T01:39:19.139Z,19.95
2018-07-24T01:42:43.616Z,18.27
2018-07-24T01:46:08.078Z,19.85
2018-07-24T01:49:32.572Z,18.02
2018-07-24T01:52:56.772Z,18.37
2018-07-24T01:56:21.197Z,19.35
2018-07-24T01:59:45.634Z,21.00
2018-07-24T02:03:10.056Z,20.35
2018-07-24T02:06:34.467Z,21.20
2018-07-24T02:09:58.914Z,20.35
2018-07-24T02:13:23.370Z,20.37
2018-07-24T02:16:47.805Z,22.25
2018-07-24T02:20:12.293Z,21.33
2018-07-24T02:23:36.757Z,20.08
2018-07-24T02:27:01.210Z,21.55
2018-07-24T02:30:25.667Z,23.05
2018-07-24T02:33:50.123Z,20.65
2018-07-24T02:37:14.586Z,21.12
2018-07-24T02:40:39.024Z,22.40
2018-07-24T02:44:03.487Z,21.23
2018-07-24T02:47:27.938Z,20.43
2018-07-24T02:50:52.409Z,20.05
2018-07-24T02:54:16.899Z,21.62
2018-07-24T02:57:41.348Z,21.45
2018-07-24T03:01:05.784Z,21.50
2018-07-24T03:04:30.223Z,20.88
2018-07-24T03:07:54.684Z,21.45
2018-07-24T03:11:19.161Z,23.38
2018-07-24T03:14:43.686Z,21.95
2018-07-24T03:18:08.134Z,22.07
2018-07-24T03:21:32.663Z,22.30
2018-07-24T03:24:57.155Z,20.40
2018-07-24T03:28:21.651Z,21.45
2018-07-24T03:31:46.091Z,21.42
2018-07-24T03:35:10.586Z,21.45
2018-07-24T03:38:35.091Z,22.05
2018-07-24T03:41:59.511Z,21.17
2018-07-24T03:45:23.963Z,21.57
2018-07-24T03:48:48.435Z,21.37
2018-07-24T03:52:12.986Z,21.10
2018-07-24T03:55:37.466Z,21.75
2018-07-24T03:59:01.940Z,23.35
2018-07-24T04:02:26.492Z,23.15
2018-07-24T04:05:50.854Z,22.48
2018-07-24T04:09:15.281Z,21.60
2018-07-24T04:12:39.713Z,22.02
2018-07-24T04:16:04.347Z,23.77
2018-07-24T04:19:28.798Z,23.10
2018-07-24T04:22:53.305Z,24.87
2018-07-24T04:26:17.922Z,23.35
2018-07-24T04:29:42.360Z,22.65
2018-07-24T04:33:06.862Z,20.72
2018-07-24T04:36:31.310Z,23.62
2018-07-24T04:39:55.776Z,22.20
2018-07-24T04:43:20.171Z,22.00
2018-07-24T04:46:44.610Z,22.93
2018-07-24T04:50:09.042Z,23.25
2018-07-24T04:53:33.505Z,22.15
2018-07-24T04:56:57.999Z,22.93
2018-07-24T05:00:22.422Z,23.73
2018-07-24T05:03:46.893Z,20.75
2018-07-24T05:07:11.335Z,21.55
2018-07-24T05:10:35.849Z,22.00
2018-07-24T05:14:00.729Z,21.50
2018-07-24T05:17:25.172Z,21.05
2018-07-24T05:20:49.650Z,21.82
2018-07-24T05:24:14.094Z,21.73
2018-07-24T05:27:38.532Z,20.32
2018-07-24T05:31:02.990Z,20.95
2018-07-24T05:34:27.458Z,19.35
2018-07-24T05:37:51.890Z,18.87
2018-07-24T05:41:16.353Z,20.35
2018-07-24T05:44:40.780Z,18.35
2018-07-24T05:48:05.232Z,18.73
2018-07-24T05:51:29.693Z,17.87
2018-07-24T05:54:54.143Z,18.62
2018-07-24T05:58:18.598Z,21.02
2018-07-24T06:01:43.072Z,21.05
2018-07-24T06:05:07.694Z,20.80
2018-07-24T06:08:32.143Z,18.12
2018-07-24T06:11:56.629Z,21.77
2018-07-24T06:15:21.071Z,21.45
2018-07-24T06:18:45.502Z,18.20
2018-07-24T06:22:09.981Z,22.62
2018-07-24T06:25:34.438Z,18.50
2018-07-24T06:28:58.899Z,20.95
2018-07-24T06:32:23.324Z,20.90
2018-07-24T06:35:47.786Z,24.10
2018-07-24T06:39:13.539Z,20.25
2018-07-24T06:42:37.672Z,22.30
2018-07-24T06:46:02.110Z,20.50
2018-07-24T06:49:26.545Z,20.95
2018-07-24T06:52:50.994Z,25.48
2018-07-24T06:56:15.441Z,22.93
2018-07-24T06:59:39.898Z,22.93
2018-07-24T07:03:04.348Z,22.70
2018-07-24T07:06:28.799Z,24.52
2018-07-24T07:09:53.249Z,23.92
2018-07-24T07:13:17.684Z,24.85
2018-07-24T07:16:42.167Z,26.12
2018-07-24T07:20:06.703Z,26.60
2018-07-24T07:23:31.538Z,28.20
2018-07-24T07:26:55.957Z,25.15
2018-07-24T07:30:20.428Z,26.23
2018-07-24T07:33:44.886Z,22.60
2018-07-24T07:37:09.348Z,16.23
2018-07-24T07:40:33.819Z,20.72
2018-07-24T07:43:58.340Z,19.57
2018-07-24T07:47:22.840Z,18.40
2018-07-24T07:50:47.295Z,16.52
2018-07-24T07:54:11.769Z,17.27
2018-07-24T07:57:36.229Z,17.73
2018-07-24T08:01:00.764Z,12.25
2018-07-24T08:04:25.299Z,12.58
2018-07-24T08:07:49.711Z,11.75
2018-07-24T08:11:14.166Z,13.90
2018-07-24T08:14:38.625Z,11.97
2018-07-24T08:18:03.097Z,12.95
2018-07-24T08:21:27.603Z,12.73
2018-07-24T08:24:52.241Z,13.88
2018-07-24T08:28:16.752Z,12.30
2018-07-24T08:31:41.141Z,11.70
2018-07-24T08:35:05.617Z,11.73
2018-07-24T08:38:30.137Z,11.18
2018-07-24T08:41:54.643Z,10.63
2018-07-24T08:45:19.086Z,10.40
2018-07-24T08:48:43.525Z,13.65
2018-07-24T08:52:08.049Z,11.75
2018-07-24T08:55:32.921Z,10.13
2018-07-24T08:58:56.987Z,10.20
2018-07-24T09:02:21.473Z,9.18
2018-07-24T09:05:45.924Z,7.42
2018-07-24T09:09:11.942Z,8.65
2018-07-24T09:12:36.478Z,6.60
2018-07-24T09:16:00.908Z,7.97
2018-07-24T09:19:25.372Z,7.78
2018-07-24T09:22:49.855Z,7.60
2018-07-24T09:26:14.359Z,7.80
2018-07-24T09:29:38.797Z,8.25
2018-07-24T09:33:03.214Z,8.58
2018-07-24T09:36:27.699Z,8.15
2018-07-24T09:39:52.186Z,8.15
2018-07-24T09:43:16.646Z,8.55
2018-07-24T09:46:41.155Z,9.35
2018-07-24T09:50:05.862Z,9.58
2018-07-24T09:53:30.351Z,9.63
2018-07-24T09:56:54.838Z,8.30
2018-07-24T10:00:23.335Z,8.83
2018-07-24T10:03:47.811Z,8.55
2018-07-24T10:07:12.257Z,7.92
2018-07-24T10:10:36.699Z,8.88
2018-07-24T10:14:01.149Z,9.20
2018-07-24T10:17:25.628Z,7.83
2018-07-24T10:20:50.129Z,7.83
2018-07-24T10:24:14.579Z,7.53
2018-07-24T10:27:39.013Z,7.72
2018-07-24T10:31:11.399Z,7.10
2018-07-24T10:34:37.321Z,6.72
2018-07-24T10:38:01.753Z,8.23
2018-07-24T10:41:26.185Z,6.80
2018-07-24T10:44:50.644Z,8.30
2018-07-24T10:48:15.071Z,8.08
2018-07-24T10:51:39.564Z,6.60
2018-07-24T10:55:03.996Z,6.62
2018-07-24T10:58:28.455Z,6.78
2018-07-24T11:01:52.942Z,6.78
2018-07-24T11:05:17.378Z,5.20
2018-07-24T11:08:41.817Z,5.92
2018-07-24T11:12:06.276Z,6.30
2018-07-24T11:15:30.796Z,5.12
2018-07-24T11:18:55.202Z,6.40
2018-07-24T11:22:19.705Z,6.70
2018-07-24T11:25:44.311Z,6.22
2018-07-24T11:29:08.747Z,6.20
2018-07-24T11:32:33.282Z,6.47
2018-07-24T11:35:57.928Z,6.95
2018-07-24T11:39:22.296Z,6.35
2018-07-24T11:42:46.718Z,5.60
2018-07-24T11:46:11.174Z,5.20
2018-07-24T11:49:35.615Z,5.17
2018-07-24T11:53:00.056Z,5.72
2018-07-24T11:56:24.501Z,5.37
2018-07-24T11:59:48.984Z,5.67
2018-07-24T12:03:13.383Z,5.87
2018-07-24T12:06:37.806Z,5.25
2018-07-24T12:10:02.265Z,5.85
2018-07-24T12:13:26.740Z,6.20
2018-07-24T12:16:51.212Z,6.22
2018-07-24T12:20:15.802Z,6.20
2018-07-24T12:23:40.421Z,5.67
2018-07-24T12:27:05.375Z,5.42
2018-07-24T12:30:29.862Z,5.78
2018-07-24T12:33:55.175Z,6.03
2018-07-24T12:37:19.820Z,5.65
2018-07-24T12:40:44.483Z,5.95
2018-07-24T12:44:09.044Z,5.22
2018-07-24T12:47:33.651Z,5.78
2018-07-24T12:50:58.291Z,6.08
2018-07-24T12:54:22.869Z,6.08
2018-07-24T12:57:47.486Z,5.92
2018-07-24T13:01:12.049Z,5.55
2018-07-24T13:04:36.624Z,5.10
2018-07-24T13:08:01.246Z,5.35
2018-07-24T13:11:25.843Z,5.03
2018-07-24T13:14:50.423Z,4.80
2018-07-24T13:18:15.020Z,4.90
2018-07-24T13:21:39.579Z,5.97
2018-07-24T13:25:04.267Z,4.87
2018-07-24T13:28:28.916Z,6.12
2018-07-24T13:31:53.547Z,5.50
2018-07-24T13:35:18.001Z,5.72
2018-07-24T13:38:42.625Z,5.17
2018-07-24T13:42:07.283Z,5.45
2018-07-24T13:45:32.029Z,5.95
2018-07-24T13:48:56.706Z,6.45
2018-07-24T13:52:21.306Z,6.33
2018-07-24T13:55:45.863Z,5.87
2018-07-24T13:59:10.399Z,5.62
2018-07-24T14:02:34.898Z,6.40
2018-07-24T14:05:59.443Z,6.28
2018-07-24T14:09:23.945Z,5.58
2018-07-24T14:12:48.489Z,6.33
2018-07-24T14:16:13.055Z,5.55
2018-07-24T14:19:37.651Z,5.12
2018-07-24T14:23:02.220Z,5.45
2018-07-24T14:26:26.807Z,6.35
2018-07-24T14:29:51.422Z,5.00
2018-07-24T14:33:22.217Z,5.08
2018-07-24T14:36:46.774Z,5.42
2018-07-24T14:40:11.348Z,6.17
2018-07-24T14:43:35.868Z,5.72
2018-07-24T14:47:00.404Z,6.03
2018-07-24T14:50:24.885Z,6.08
2018-07-24T14:53:49.317Z,5.20
2018-07-24T14:57:13.754Z,5.90
2018-07-24T15:00:38.237Z,5.83
2018-07-24T15:04:02.764Z,5.12
2018-07-24T15:07:27.275Z,5.92
2018-07-24T15:10:51.785Z,5.17
2018-07-24T15:14:16.208Z,4.92
2018-07-24T15:17:40.640Z,5.67
2018-07-24T15:21:05.042Z,4.85
2018-07-24T15:24:29.474Z,4.47
2018-07-24T15:27:54.186Z,4.78
2018-07-24T15:31:18.709Z,4.53
2018-07-24T15:34:44.209Z,4.25
2018-07-24T15:38:10.737Z,5.03
2018-07-24T15:41:38.106Z,4.97
2018-07-24T15:45:02.576Z,5.40
2018-07-24T15:48:26.993Z,4.50
2018-07-24T15:51:51.466Z,5.33
2018-07-24T15:55:28.206Z,5.28
2018-07-24T15:58:57.670Z,5.28
2018-07-24T16:02:22.302Z,4.65
2018-07-24T16:05:46.936Z,4.92
2018-07-24T16:09:13.064Z,5.33
2018-07-24T16:12:37.613Z,5.72
2018-07-24T16:16:02.225Z,4.78
2018-07-24T16:19:26.871Z,5.85
2018-07-24T16:22:51.449Z,5.70
2018-07-24T16:26:16.006Z,6.75
2018-07-24T16:29:40.465Z,5.10
2018-07-24T16:33:05.036Z,4.83
2018-07-24T16:36:32.662Z,5.40
2018-07-24T16:39:57.187Z,5.53
2018-07-24T16:43:21.702Z,5.75
2018-07-24T16:46:46.212Z,5.55
2018-07-24T16:50:10.824Z,7.60
2018-07-24T16:53:35.402Z,5.37
2018-07-24T16:57:00.002Z,6.30
2018-07-24T17:00:24.732Z,5.85
2018-07-24T17:03:49.213Z,7.15
2018-07-24T17:07:13.716Z,5.75
2018-07-24T17:10:38.295Z,5.37
2018-07-24T17:14:02.962Z,5.58
2018-07-24T17:17:27.321Z,5.95
2018-07-24T17:20:51.816Z,4.85
2018-07-24T17:24:16.324Z,5.80
2018-07-24T17:27:40.869Z,5.55
2018-07-24T17:31:05.424Z,5.78
2018-07-24T17:34:29.681Z,5.00
2018-07-24T17:37:54.223Z,4.87
2018-07-24T17:41:18.775Z,6.00
2018-07-24T17:44:43.230Z,5.40
2018-07-24T17:48:08.150Z,6.80
2018-07-24T17:51:32.681Z,5.33
2018-07-24T17:54:57.209Z,6.28
2018-07-24T17:58:21.424Z,5.75
2018-07-24T18:01:45.957Z,5.85
2018-07-24T18:05:10.380Z,6.08
2018-07-24T18:08:34.890Z,6.17
2018-07-24T18:11:59.539Z,5.37
2018-07-24T18:15:24.025Z,5.70
2018-07-24T18:18:48.502Z,6.22
2018-07-24T18:22:13.064Z,7.03
2018-07-24T18:25:37.690Z,6.70
2018-07-24T18:29:02.214Z,6.70
2018-07-24T18:32:26.887Z,7.08
2018-07-24T18:35:51.401Z,6.35
2018-07-24T18:39:15.840Z,7.50
2018-07-24T18:42:40.342Z,8.45
2018-07-24T18:46:04.573Z,7.55
2018-07-24T18:49:29.023Z,7.90
2018-07-24T18:52:53.499Z,6.85
2018-07-24T18:56:17.927Z,7.35
2018-07-24T18:59:42.392Z,7.58
2018-07-24T19:03:06.868Z,7.75
2018-07-24T19:06:31.291Z,7.85
2018-07-24T19:09:55.699Z,7.40
2018-07-24T19:13:20.153Z,7.72
2018-07-24T19:16:44.619Z,8.28
2018-07-24T19:20:09.077Z,7.62
2018-07-24T19:23:33.556Z,7.62
2018-07-24T19:26:58.007Z,6.95
2018-07-24T19:30:22.428Z,7.45
2018-07-24T19:33:46.853Z,7.22
2018-07-24T19:37:11.298Z,7.60
2018-07-24T19:40:35.746Z,7.45
2018-07-24T19:44:00.312Z,7.90
2018-07-24T19:47:24.657Z,7.67
2018-07-24T19:50:49.107Z,8.13
2018-07-24T19:54:13.550Z,7.70
2018-07-24T19:57:38.032Z,8.00
2018-07-24T20:01:02.511Z,8.20
2018-07-24T20:04:26.975Z,8.43
2018-07-24T20:07:51.375Z,7.92
2018-07-24T20:11:16.758Z,8.43
2018-07-24T20:14:41.168Z,8.25
2018-07-24T20:18:05.612Z,7.65
2018-07-24T20:21:30.033Z,7.90
2018-07-24T20:24:55.975Z,7.85
2018-07-24T20:28:20.457Z,8.68
2018-07-24T20:31:44.872Z,9.58
2018-07-24T20:35:09.368Z,8.28
2018-07-24T20:38:33.758Z,8.53
2018-07-24T20:41:58.189Z,9.23
2018-07-24T20:45:22.975Z,8.78
2018-07-24T20:48:47.404Z,8.93
2018-07-24T20:52:11.846Z,9.05
2018-07-24T20:55:36.308Z,10.03
2018-07-24T20:59:00.756Z,9.15
2018-07-24T21:02:25.213Z,9.18
2018-07-24T21:05:49.677Z,9.43
2018-07-24T21:09:14.377Z,9.95
2018-07-24T21:12:38.795Z,9.20
2018-07-24T21:16:03.303Z,10.30
2018-07-24T21:19:27.799Z,9.48
2018-07-24T21:22:52.458Z,9.05
2018-07-24T21:26:16.911Z,9.98
2018-07-24T21:29:41.377Z,8.78
2018-07-24T21:33:06.089Z,9.28
2018-07-24T21:36:30.710Z,8.80
2018-07-24T21:39:55.155Z,8.88
2018-07-24T21:43:19.610Z,8.28
2018-07-24T21:46:44.084Z,9.25
2018-07-24T21:50:08.609Z,8.60
2018-07-24T21:53:33.177Z,8.90
2018-07-24T21:56:57.710Z,8.53
2018-07-24T22:00:22.352Z,9.33
2018-07-24T22:03:46.775Z,8.20
2018-07-24T22:07:11.275Z,8.30
2018-07-24T22:10:35.756Z,8.30
2018-07-24T22:14:00.302Z,7.33
2018-07-24T22:17:24.811Z,8.08
2018-07-24T22:20:49.395Z,8.48
2018-07-24T22:24:14.024Z,7.58
2018-07-24T22:27:38.569Z,7.78
2018-07-24T22:31:03.174Z,7.60
2018-07-24T22:34:27.664Z,7.37
2018-07-24T22:37:51.971Z,8.25
2018-07-24T22:41:16.545Z,8.95
2018-07-24T22:44:41.119Z,7.90
2018-07-24T22:48:05.692Z,7.92
2018-07-24T22:51:30.340Z,8.63
2018-07-24T22:54:54.870Z,7.50
2018-07-24T22:58:19.431Z,7.75
2018-07-24T23:01:43.964Z,7.60
2018-07-24T23:05:08.570Z,7.37
2018-07-24T23:08:33.112Z,8.68
2018-07-24T23:11:57.601Z,9.08
2018-07-24T23:15:22.229Z,8.55
2018-07-24T23:18:46.787Z,8.73
2018-07-24T23:22:11.418Z,7.85
2018-07-24T23:25:35.983Z,8.70
2018-07-24T23:29:00.578Z,8.00
2018-07-24T23:32:25.193Z,7.70
2018-07-24T23:35:49.782Z,8.43
2018-07-24T23:39:14.285Z,8.13
2018-07-24T23:42:39.278Z,9.23
2018-07-24T23:46:03.907Z,8.68
2018-07-24T23:49:28.741Z,8.98
2018-07-24T23:52:53.623Z,8.68
2018-07-24T23:56:18.765Z,8.85
2018-07-24T23:59:43.945Z,8.75
